createdAt,value
2018-12-12T00:00:22.780Z,18.47
2018-12-12T00:02:49.778Z,17.23
2018-12-12T00:05:16.382Z,14.50
2018-12-12T00:07:43.479Z,14.07
2018-12-12T00:10:12.200Z,14.07
2018-12-12T00:12:39.108Z,15.50
2018-12-12T00:15:05.833Z,14.23
2018-12-12T00:17:32.529Z,14.70
2018-12-12T00:19:59.113Z,14.63
2018-12-12T00:22:25.725Z,14.63
2018-12-12T00:24:52.305Z,14.57
2018-12-12T00:27:18.913Z,14.20
2018-12-12T00:29:45.525Z,14.23
2018-12-12T00:32:12.120Z,15.60
2018-12-12T00:34:38.705Z,15.53
2018-12-12T00:37:05.888Z,16.73
2018-12-12T00:39:32.512Z,15.23
2018-12-12T00:41:59.125Z,15.70
2018-12-12T00:44:25.704Z,14.90
2018-12-12T00:46:52.564Z,13.83
2018-12-12T00:49:19.390Z,14.10
2018-12-12T00:51:46.105Z,14.03
2018-12-12T00:54:12.720Z,13.77
2018-12-12T00:56:39.672Z,14.13
2018-12-12T00:59:06.312Z,14.47
2018-12-12T01:01:33.756Z,14.50
2018-12-12T01:04:00.349Z,15.23
2018-12-12T01:06:27.025Z,15.23
2018-12-12T01:08:53.637Z,15.27
2018-12-12T01:11:25.973Z,14.77
2018-12-12T01:13:52.565Z,14.83
2018-12-12T01:16:19.217Z,15.37
2018-12-12T01:18:45.796Z,14.07
2018-12-12T01:21:12.499Z,14.17
2018-12-12T01:23:39.073Z,15.03
2018-12-12T01:26:05.690Z,14.37
2018-12-12T01:28:32.294Z,14.60
2018-12-12T01:30:58.930Z,14.57
2018-12-12T01:33:25.517Z,15.50
2018-12-12T01:35:52.105Z,15.67
2018-12-12T01:38:18.707Z,15.53
2018-12-12T01:40:45.293Z,15.90
2018-12-12T01:43:11.892Z,15.20
2018-12-12T01:45:38.481Z,16.33
2018-12-12T01:48:05.064Z,15.90
2018-12-12T01:50:31.665Z,16.13
2018-12-12T01:52:58.245Z,16.20
2018-12-12T01:55:24.839Z,17.13
2018-12-12T01:57:51.450Z,15.87
2018-12-12T02:00:18.097Z,17.47
2018-12-12T02:02:44.709Z,16.73
2018-12-12T02:05:11.361Z,17.53
2018-12-12T02:07:38.042Z,17.53
2018-12-12T02:10:04.968Z,18.87
2018-12-12T02:12:31.589Z,17.30
2018-12-12T02:14:58.202Z,18.77
2018-12-12T02:17:24.793Z,18.20
2018-12-12T02:19:51.381Z,18.23
2018-12-12T02:22:18.000Z,18.20
2018-12-12T02:24:44.646Z,19.10
2018-12-12T02:27:11.279Z,17.93
2018-12-12T02:29:37.861Z,18.87
2018-12-12T02:32:04.927Z,19.27
2018-12-12T02:34:31.598Z,18.67
2018-12-12T02:36:58.235Z,20.00
2018-12-12T02:39:24.839Z,19.70
2018-12-12T02:41:51.421Z,19.13
2018-12-12T02:44:18.037Z,18.97
2018-12-12T02:46:44.793Z,18.53
2018-12-12T02:49:11.365Z,18.30
2018-12-12T02:51:38.994Z,19.27
2018-12-12T02:54:05.574Z,19.27
2018-12-12T02:56:32.250Z,20.37
2018-12-12T02:58:58.845Z,18.97
2018-12-12T03:01:26.308Z,19.20
2018-12-12T03:03:53.121Z,19.23
2018-12-12T03:06:19.794Z,19.03
2018-12-12T03:08:46.386Z,18.87
2018-12-12T03:11:14.914Z,18.13
2018-12-12T03:13:41.578Z,18.70
2018-12-12T03:16:08.828Z,19.70
2018-12-12T03:18:35.413Z,19.03
2018-12-12T03:21:01.997Z,20.57
2018-12-12T03:23:28.600Z,19.27
2018-12-12T03:25:55.404Z,19.97
2018-12-12T03:28:22.005Z,20.73
2018-12-12T03:30:48.585Z,20.60
2018-12-12T03:33:15.185Z,20.93
2018-12-12T03:35:41.789Z,20.90
2018-12-12T03:38:08.500Z,22.70
2018-12-12T03:40:35.428Z,22.03
2018-12-12T03:43:02.038Z,21.13
2018-12-12T03:45:28.616Z,19.67
2018-12-12T03:47:55.212Z,19.77
2018-12-12T03:50:21.826Z,20.00
2018-12-12T03:52:48.417Z,20.67
2018-12-12T03:55:15.008Z,19.00
2018-12-12T03:57:41.623Z,19.00
2018-12-12T04:00:08.274Z,18.87
2018-12-12T04:02:34.857Z,19.67
2018-12-12T04:05:01.500Z,19.37
2018-12-12T04:07:28.117Z,19.87
2018-12-12T04:09:54.721Z,19.47
2018-12-12T04:12:21.320Z,19.63
2018-12-12T04:14:47.933Z,18.90
2018-12-12T04:17:14.512Z,19.63
2018-12-12T04:19:41.097Z,18.40
2018-12-12T04:22:07.732Z,19.33
2018-12-12T04:24:34.453Z,19.07
2018-12-12T04:27:01.057Z,20.67
2018-12-12T04:29:27.636Z,18.90
2018-12-12T04:31:54.235Z,18.53
2018-12-12T04:34:20.854Z,18.97
2018-12-12T04:36:47.435Z,18.53
2018-12-12T04:39:14.037Z,20.10
2018-12-12T04:41:40.616Z,19.90
2018-12-12T04:44:07.220Z,19.20
2018-12-12T04:46:33.829Z,18.57
2018-12-12T04:49:00.428Z,20.87
2018-12-12T04:51:27.013Z,21.37
2018-12-12T04:53:53.628Z,20.20
2018-12-12T04:56:20.209Z,20.40
2018-12-12T04:58:46.808Z,20.97
2018-12-12T05:01:13.390Z,21.40
2018-12-12T05:03:40.033Z,20.13
2018-12-12T05:06:06.657Z,20.47
2018-12-12T05:08:33.265Z,21.07
2018-12-12T05:10:59.852Z,20.60
2018-12-12T05:13:26.461Z,19.47
2018-12-12T05:15:53.129Z,19.13
2018-12-12T05:18:19.822Z,20.07
2018-12-12T05:20:46.404Z,20.50
2018-12-12T05:23:12.996Z,19.97
2018-12-12T05:25:39.618Z,20.30
2018-12-12T05:28:06.441Z,20.63
2018-12-12T05:30:33.020Z,20.23
2018-12-12T05:32:59.604Z,20.90
2018-12-12T05:35:26.208Z,21.37
2018-12-12T05:37:52.791Z,21.87
2018-12-12T05:40:19.860Z,20.83
2018-12-12T05:42:46.593Z,21.87
2018-12-12T05:45:13.176Z,20.80
2018-12-12T05:47:39.772Z,21.50
2018-12-12T05:50:06.400Z,21.27
2018-12-12T05:52:33.002Z,21.17
2018-12-12T05:54:59.671Z,21.67
2018-12-12T05:57:26.290Z,21.43
2018-12-12T05:59:52.889Z,22.90
2018-12-12T06:02:19.473Z,22.23
2018-12-12T06:04:46.086Z,21.67
2018-12-12T06:07:12.670Z,20.77
2018-12-12T06:09:39.281Z,20.63
2018-12-12T06:12:06.037Z,22.40
2018-12-12T06:14:32.589Z,22.37
2018-12-12T06:16:59.181Z,21.87
2018-12-12T06:19:25.793Z,21.50
2018-12-12T06:21:52.381Z,22.00
2018-12-12T06:24:19.010Z,22.07
2018-12-12T06:26:45.593Z,23.23
2018-12-12T06:29:12.197Z,24.50
2018-12-12T06:31:38.813Z,26.33
2018-12-12T06:34:05.392Z,24.70
2018-12-12T06:36:31.984Z,24.80
2018-12-12T06:38:58.581Z,25.20
2018-12-12T06:41:25.169Z,24.50
2018-12-12T06:43:51.782Z,24.10
2018-12-12T06:46:18.392Z,24.30
2018-12-12T06:48:45.001Z,24.77
2018-12-12T06:51:11.592Z,24.37
2018-12-12T06:53:38.281Z,25.60
2018-12-12T06:56:04.908Z,25.87
2018-12-12T06:58:31.512Z,25.83
2018-12-12T07:00:58.124Z,26.30
2018-12-12T07:03:24.769Z,26.23
2018-12-12T07:05:51.388Z,26.20
2018-12-12T07:08:17.972Z,26.40
2018-12-12T07:10:44.581Z,25.77
2018-12-12T07:13:11.232Z,25.53
2018-12-12T07:15:37.887Z,25.17
2018-12-12T07:18:04.485Z,26.73
2018-12-12T07:20:31.094Z,25.77
2018-12-12T07:22:57.672Z,25.77
2018-12-12T07:25:24.257Z,23.87
2018-12-12T07:27:50.853Z,24.37
2018-12-12T07:30:17.472Z,24.33
2018-12-12T07:32:44.061Z,24.57
2018-12-12T07:35:10.648Z,22.33
2018-12-12T07:37:37.255Z,23.77
2018-12-12T07:40:03.879Z,22.87
2018-12-12T07:42:30.485Z,22.83
2018-12-12T07:44:57.074Z,23.27
2018-12-12T07:47:23.682Z,22.83
2018-12-12T07:49:50.269Z,21.57
2018-12-12T07:52:16.874Z,22.60
2018-12-12T07:54:43.466Z,22.40
2018-12-12T07:57:10.047Z,22.60
2018-12-12T07:59:36.649Z,22.87
2018-12-12T08:02:03.340Z,23.17
2018-12-12T08:04:29.926Z,23.60
2018-12-12T08:06:56.525Z,24.33
2018-12-12T08:09:23.118Z,23.33
2018-12-12T08:11:49.716Z,24.30
2018-12-12T08:14:16.315Z,23.53
2018-12-12T08:16:42.897Z,24.10
2018-12-12T08:19:09.524Z,23.37
2018-12-12T08:21:36.111Z,23.23
2018-12-12T08:24:02.736Z,23.13
2018-12-12T08:26:29.341Z,22.30
2018-12-12T08:28:55.920Z,24.03
2018-12-12T08:31:22.538Z,23.77
2018-12-12T08:33:49.129Z,23.13
2018-12-12T08:36:15.736Z,21.13
2018-12-12T08:38:42.340Z,22.60
2018-12-12T08:41:08.948Z,22.03
2018-12-12T08:43:35.556Z,21.67
2018-12-12T08:46:02.170Z,22.20
2018-12-12T08:48:28.840Z,19.63
2018-12-12T08:50:55.545Z,19.47
2018-12-12T08:53:22.128Z,19.27
2018-12-12T08:55:48.762Z,17.73
2018-12-12T08:58:15.340Z,16.73
2018-12-12T09:00:41.950Z,16.43
2018-12-12T09:03:08.532Z,15.70
2018-12-12T09:05:35.146Z,16.10
2018-12-12T09:08:02.008Z,15.07
2018-12-12T09:10:28.821Z,15.53
2018-12-12T09:12:55.430Z,15.27
2018-12-12T09:15:22.017Z,14.67
2018-12-12T09:17:48.626Z,14.73
2018-12-12T09:20:15.214Z,13.70
2018-12-12T09:22:41.819Z,15.00
2018-12-12T09:25:08.436Z,14.13
2018-12-12T09:27:35.065Z,14.67
2018-12-12T09:30:01.688Z,16.00
2018-12-12T09:32:28.277Z,14.63
2018-12-12T09:34:54.960Z,15.17
2018-12-12T09:37:21.543Z,15.33
2018-12-12T09:39:48.129Z,15.00
2018-12-12T09:42:14.751Z,15.33
2018-12-12T09:44:41.364Z,14.93
2018-12-12T09:47:07.945Z,15.57
2018-12-12T09:49:34.533Z,15.50
2018-12-12T09:52:01.124Z,16.63
2018-12-12T09:54:27.708Z,15.37
2018-12-12T09:56:54.308Z,14.53
2018-12-12T09:59:20.891Z,14.93
2018-12-12T10:01:47.502Z,16.03
2018-12-12T10:04:14.097Z,14.00
2018-12-12T10:06:40.765Z,13.20
2018-12-12T10:09:07.389Z,17.33
2018-12-12T10:11:33.982Z,14.30
2018-12-12T10:14:00.596Z,12.50
2018-12-12T10:16:27.181Z,11.83
2018-12-12T10:18:53.761Z,11.80
2018-12-12T10:21:20.406Z,11.70
2018-12-12T10:23:47.012Z,10.20
2018-12-12T10:26:13.602Z,9.10
2018-12-12T10:28:40.242Z,8.97
2018-12-12T10:31:06.843Z,9.30
2018-12-12T10:33:37.563Z,8.27
2018-12-12T10:36:01.996Z,9.07
2018-12-12T10:38:28.588Z,9.20
2018-12-12T10:40:55.168Z,7.57
2018-12-12T10:43:21.769Z,9.73
2018-12-12T10:45:48.359Z,10.50
2018-12-12T10:48:14.936Z,9.70
2018-12-12T10:50:41.541Z,10.03
2018-12-12T10:53:09.601Z,11.17
2018-12-12T10:55:36.445Z,10.53
2018-12-12T10:58:03.049Z,9.43
2018-12-12T11:00:29.648Z,9.53
2018-12-12T11:03:02.085Z,8.83
2018-12-12T11:05:28.913Z,8.37
2018-12-12T11:07:55.510Z,7.97
2018-12-12T11:10:22.117Z,9.10
2018-12-12T11:12:48.696Z,8.30
2018-12-12T11:15:15.298Z,8.73
2018-12-12T11:17:41.906Z,8.50
2018-12-12T11:20:08.529Z,9.67
2018-12-12T11:22:35.100Z,8.70
2018-12-12T11:25:01.716Z,8.00
2018-12-12T11:27:28.328Z,8.13
2018-12-12T11:29:54.932Z,7.90
2018-12-12T11:32:21.556Z,8.67
2018-12-12T11:34:48.138Z,8.50
2018-12-12T11:37:14.756Z,8.87
2018-12-12T11:39:41.348Z,8.33
2018-12-12T11:42:07.928Z,8.47
2018-12-12T11:44:34.506Z,8.43
2018-12-12T11:47:01.101Z,6.63
2018-12-12T11:49:27.694Z,5.80
2018-12-12T11:51:54.293Z,6.30
2018-12-12T11:54:21.025Z,6.57
2018-12-12T11:56:47.595Z,5.47
2018-12-12T11:59:14.195Z,4.70
2018-12-12T12:01:40.764Z,3.20
2018-12-12T12:04:07.345Z,3.50
2018-12-12T12:06:33.932Z,3.83
2018-12-12T12:09:00.509Z,3.37
2018-12-12T12:11:27.104Z,3.30
2018-12-12T12:13:53.680Z,3.77
2018-12-12T12:16:20.296Z,3.30
2018-12-12T12:18:46.888Z,3.33
2018-12-12T12:21:13.501Z,3.07
2018-12-12T12:23:40.089Z,3.47
2018-12-12T12:26:06.689Z,3.23
2018-12-12T12:28:33.256Z,3.00
2018-12-12T12:30:59.857Z,3.07
2018-12-12T12:33:26.457Z,3.37
2018-12-12T12:35:53.065Z,3.00
2018-12-12T12:38:19.640Z,4.13
2018-12-12T12:40:46.264Z,3.70
2018-12-12T12:43:12.881Z,4.37
2018-12-12T12:45:39.476Z,4.60
2018-12-12T12:48:06.081Z,4.73
2018-12-12T12:50:32.654Z,3.83
2018-12-12T12:52:59.269Z,4.43
2018-12-12T12:55:25.869Z,3.57
2018-12-12T12:57:52.474Z,3.57
2018-12-12T13:00:19.045Z,4.17
2018-12-12T13:02:45.636Z,3.57
2018-12-12T13:05:12.233Z,4.23
2018-12-12T13:07:38.812Z,4.20
2018-12-12T13:10:11.321Z,4.27
2018-12-12T13:12:34.002Z,4.23
2018-12-12T13:15:00.607Z,4.57
2018-12-12T13:17:27.201Z,3.50
2018-12-12T13:19:53.792Z,3.53
2018-12-12T13:22:20.398Z,3.37
2018-12-12T13:24:47.005Z,3.97
2018-12-12T13:27:13.604Z,3.87
2018-12-12T13:29:40.199Z,4.00
2018-12-12T13:32:06.796Z,4.03
2018-12-12T13:34:33.397Z,4.20
2018-12-12T13:37:00.053Z,3.63
2018-12-12T13:39:26.646Z,4.03
2018-12-12T13:41:53.244Z,5.17
2018-12-12T13:44:19.813Z,4.10
2018-12-12T13:46:46.401Z,4.10
2018-12-12T13:49:13.004Z,4.47
2018-12-12T13:51:39.577Z,4.03
2018-12-12T13:54:06.154Z,3.90
2018-12-12T13:56:32.744Z,3.70
2018-12-12T13:58:59.317Z,3.93
2018-12-12T14:01:25.922Z,6.87
2018-12-12T14:03:52.497Z,4.43
2018-12-12T14:06:19.067Z,3.63
2018-12-12T14:08:45.654Z,4.20
2018-12-12T14:11:12.244Z,6.37
2018-12-12T14:13:38.845Z,4.57
2018-12-12T14:16:05.417Z,3.97
2018-12-12T14:18:32.041Z,4.17
2018-12-12T14:20:58.693Z,3.80
2018-12-12T14:23:25.264Z,3.70
2018-12-12T14:25:51.856Z,3.97
2018-12-12T14:28:18.454Z,5.40
2018-12-12T14:30:45.022Z,4.20
2018-12-12T14:33:11.693Z,5.93
2018-12-12T14:35:38.265Z,3.63
2018-12-12T14:38:04.864Z,3.67
2018-12-12T14:40:31.444Z,4.17
2018-12-12T14:42:58.064Z,3.53
2018-12-12T14:45:24.658Z,3.87
2018-12-12T14:47:51.349Z,5.97
2018-12-12T14:50:17.929Z,5.43
2018-12-12T14:52:44.568Z,6.63
2018-12-12T14:55:11.188Z,6.07
2018-12-12T14:57:37.837Z,5.23
2018-12-12T15:00:04.756Z,5.40
2018-12-12T15:02:31.349Z,5.47
2018-12-12T15:04:57.933Z,4.93
2018-12-12T15:07:24.520Z,5.27
2018-12-12T15:09:51.104Z,4.80
2018-12-12T15:12:18.548Z,4.47
2018-12-12T15:14:45.116Z,4.80
2018-12-12T15:17:11.691Z,5.13
2018-12-12T15:19:38.292Z,3.10
2018-12-12T15:22:04.974Z,3.60
2018-12-12T15:27:14.392Z,3.97
2018-12-12T15:29:40.981Z,4.23
2018-12-12T15:32:07.583Z,3.30
2018-12-12T15:34:34.152Z,4.07
2018-12-12T15:37:00.788Z,3.63
2018-12-12T15:39:27.362Z,3.90
2018-12-12T15:41:53.958Z,3.63
2018-12-12T15:44:20.598Z,3.60
2018-12-12T15:46:47.200Z,3.93
2018-12-12T15:49:13.777Z,3.93
2018-12-12T15:51:40.381Z,4.10
2018-12-12T15:54:06.961Z,4.53
2018-12-12T15:56:33.533Z,4.10
2018-12-12T15:59:00.124Z,4.60
2018-12-12T16:01:26.704Z,4.43
2018-12-12T16:03:53.332Z,3.90
2018-12-12T16:06:19.948Z,4.43
2018-12-12T16:08:46.549Z,6.30
2018-12-12T16:11:13.139Z,5.07
2018-12-12T16:13:40.124Z,4.90
2018-12-12T16:16:06.705Z,4.93
2018-12-12T16:18:33.301Z,5.53
2018-12-12T16:21:00.353Z,4.80
2018-12-12T16:23:27.057Z,5.07
2018-12-12T16:25:53.657Z,5.10
2018-12-12T16:28:20.260Z,5.40
2018-12-12T16:30:46.856Z,5.03
2018-12-12T16:33:13.452Z,5.50
2018-12-12T16:35:40.054Z,6.33
2018-12-12T16:38:06.906Z,6.13
2018-12-12T16:40:33.510Z,5.90
2018-12-12T16:43:00.073Z,5.87
2018-12-12T16:45:26.672Z,5.50
2018-12-12T16:47:53.288Z,5.87
2018-12-12T16:50:19.885Z,5.30
2018-12-12T16:52:46.449Z,5.27
2018-12-12T16:55:13.046Z,5.27
2018-12-12T16:57:39.621Z,4.87
2018-12-12T17:00:07.362Z,5.20
2018-12-12T17:02:33.956Z,5.30
2018-12-12T17:05:02.488Z,4.63
2018-12-12T17:07:29.106Z,4.87
2018-12-12T17:09:55.757Z,4.40
2018-12-12T17:12:22.352Z,4.50
2018-12-12T17:14:48.946Z,4.17
2018-12-12T17:17:15.538Z,3.67
2018-12-12T17:19:42.143Z,3.63
2018-12-12T17:22:08.717Z,4.60
2018-12-12T17:24:35.288Z,3.90
2018-12-12T17:27:01.917Z,4.07
2018-12-12T17:29:28.592Z,3.87
2018-12-12T17:31:55.196Z,4.07
2018-12-12T17:34:21.777Z,3.93
2018-12-12T17:36:48.360Z,4.40
2018-12-12T17:39:14.958Z,4.60
2018-12-12T17:41:41.538Z,4.00
2018-12-12T17:44:08.216Z,4.20
2018-12-12T17:46:34.790Z,4.53
2018-12-12T17:49:01.360Z,4.87
2018-12-12T17:51:27.989Z,4.60
2018-12-12T17:53:54.563Z,4.67
2018-12-12T17:56:21.154Z,4.97
2018-12-12T17:58:47.724Z,4.83
2018-12-12T18:01:14.349Z,4.60
2018-12-12T18:03:40.928Z,4.87
2018-12-12T18:06:07.565Z,4.87
2018-12-12T18:08:34.141Z,4.50
2018-12-12T18:11:00.759Z,5.10
2018-12-12T18:13:27.329Z,4.67
2018-12-12T18:15:53.914Z,4.53
2018-12-12T18:18:20.509Z,4.43
2018-12-12T18:20:47.109Z,5.00
2018-12-12T18:23:13.700Z,4.80
2018-12-12T18:25:40.297Z,4.23
2018-12-12T18:28:06.872Z,4.30
2018-12-12T18:30:33.464Z,4.90
2018-12-12T18:33:00.093Z,4.23
2018-12-12T18:35:26.666Z,4.50
2018-12-12T18:37:53.267Z,4.83
2018-12-12T18:40:19.949Z,4.70
2018-12-12T18:42:46.529Z,4.80
2018-12-12T18:45:13.105Z,5.47
2018-12-12T18:47:39.698Z,6.33
2018-12-12T18:50:07.001Z,5.40
2018-12-12T18:52:33.584Z,4.70
2018-12-12T18:55:00.201Z,4.97
2018-12-12T18:57:26.783Z,4.73
2018-12-12T18:59:53.373Z,5.03
2018-12-12T19:02:19.981Z,5.00
2018-12-12T19:04:46.577Z,4.40
2018-12-12T19:07:13.164Z,4.80
2018-12-12T19:09:39.759Z,4.07
2018-12-12T19:12:06.348Z,4.03
2018-12-12T19:14:32.930Z,4.30
2018-12-12T19:16:59.521Z,7.37
2018-12-12T19:19:26.115Z,5.87
2018-12-12T19:21:52.705Z,4.57
2018-12-12T19:24:19.302Z,4.67
2018-12-12T19:26:45.998Z,4.70
2018-12-12T19:29:12.578Z,3.97
2018-12-12T19:31:39.154Z,4.70
2018-12-12T19:34:05.774Z,4.90
2018-12-12T19:36:32.348Z,5.90
2018-12-12T19:38:58.991Z,4.03
2018-12-12T19:41:25.560Z,5.07
2018-12-12T19:43:52.160Z,4.70
2018-12-12T19:46:18.752Z,5.53
2018-12-12T19:48:45.327Z,5.33
2018-12-12T19:51:11.913Z,6.23
2018-12-12T19:53:38.490Z,5.20
2018-12-12T19:56:05.081Z,5.40
2018-12-12T19:58:31.685Z,5.20
2018-12-12T20:00:58.311Z,5.63
2018-12-12T20:03:24.907Z,7.73
2018-12-12T20:05:51.496Z,5.33
2018-12-12T20:08:18.069Z,5.10
2018-12-12T20:10:44.694Z,5.00
2018-12-12T20:13:11.273Z,4.27
2018-12-12T20:15:43.981Z,4.87
2018-12-12T20:18:10.549Z,5.53
2018-12-12T20:20:37.140Z,5.67
2018-12-12T20:23:03.752Z,6.90
2018-12-12T20:25:30.337Z,6.30
2018-12-12T20:27:56.924Z,6.37
2018-12-12T20:30:23.521Z,6.27
2018-12-12T20:32:50.123Z,6.87
2018-12-12T20:35:16.775Z,6.30
2018-12-12T20:37:43.398Z,5.33
2018-12-12T20:40:09.997Z,5.30
2018-12-12T20:42:36.568Z,5.00
2018-12-12T20:45:03.892Z,4.40
2018-12-12T20:47:30.472Z,4.53
2018-12-12T20:49:57.066Z,4.10
2018-12-12T20:52:23.652Z,4.17
2018-12-12T20:54:50.232Z,3.90
2018-12-12T20:57:16.837Z,3.77
2018-12-12T20:59:45.837Z,4.40
2018-12-12T21:02:12.001Z,5.37
2018-12-12T21:04:38.629Z,4.53
2018-12-12T21:07:05.203Z,4.60
2018-12-12T21:09:31.769Z,4.40
2018-12-12T21:11:58.393Z,3.87
2018-12-12T21:14:25.010Z,4.40
2018-12-12T21:16:51.632Z,4.17
2018-12-12T21:19:18.229Z,4.53
2018-12-12T21:21:44.800Z,4.90
2018-12-12T21:24:11.397Z,4.60
2018-12-12T21:26:37.989Z,4.23
2018-12-12T21:29:04.562Z,4.60
2018-12-12T21:31:31.157Z,4.47
2018-12-12T21:33:57.829Z,3.93
2018-12-12T21:36:24.433Z,4.23
2018-12-12T21:38:51.041Z,3.80
2018-12-12T21:41:17.621Z,3.63
2018-12-12T21:43:44.249Z,3.90
2018-12-12T21:46:10.820Z,3.60
2018-12-12T21:48:37.412Z,3.60
2018-12-12T21:51:04.036Z,3.77
2018-12-12T21:53:30.661Z,3.70
2018-12-12T21:55:57.309Z,4.40
2018-12-12T21:58:23.904Z,4.70
2018-12-12T22:00:50.520Z,5.00
2018-12-12T22:03:17.089Z,4.80
2018-12-12T22:05:44.558Z,5.30
2018-12-12T22:08:11.235Z,5.10
2018-12-12T22:10:37.807Z,5.37
2018-12-12T22:13:04.393Z,4.90
2018-12-12T22:15:30.964Z,4.60
2018-12-12T22:17:57.568Z,4.80
2018-12-12T22:20:24.169Z,5.30
2018-12-12T22:22:50.781Z,4.50
2018-12-12T22:25:17.748Z,4.37
2018-12-12T22:27:44.409Z,4.60
2018-12-12T22:30:11.024Z,4.60
2018-12-12T22:32:37.620Z,4.20
2018-12-12T22:35:04.536Z,5.20
2018-12-12T22:37:31.112Z,4.60
2018-12-12T22:39:57.704Z,4.40
2018-12-12T22:42:24.288Z,4.53
2018-12-12T22:44:50.865Z,4.60
2018-12-12T22:47:17.520Z,4.30
2018-12-12T22:49:44.098Z,4.60
2018-12-12T22:52:11.324Z,4.70
2018-12-12T22:54:38.008Z,4.90
2018-12-12T22:57:04.617Z,5.83
2018-12-12T22:59:31.209Z,5.43
2018-12-12T23:01:57.809Z,5.57
2018-12-12T23:04:24.400Z,5.60
2018-12-12T23:06:50.970Z,6.20
2018-12-12T23:09:17.585Z,6.90
2018-12-12T23:11:44.150Z,9.30
2018-12-12T23:14:10.772Z,7.63
2018-12-12T23:16:37.365Z,7.83
2018-12-12T23:19:03.959Z,5.53
2018-12-12T23:21:30.548Z,5.50
2018-12-12T23:23:57.196Z,5.23
2018-12-12T23:26:23.783Z,5.60
2018-12-12T23:28:50.367Z,4.90
2018-12-12T23:31:16.965Z,5.10
2018-12-12T23:33:43.542Z,5.17
2018-12-12T23:36:10.116Z,4.73
2018-12-12T23:38:36.706Z,4.80
2018-12-12T23:41:03.307Z,5.00
2018-12-12T23:43:29.901Z,5.23
2018-12-12T23:45:56.501Z,4.90
2018-12-12T23:48:23.078Z,5.23
2018-12-12T23:50:49.726Z,5.23
2018-12-12T23:53:16.335Z,8.30
2018-12-12T23:55:42.936Z,9.43
2018-12-12T23:58:09.509Z,8.77
